createdAt,value
2019-05-07T00:01:23.423Z,3.10
2019-05-07T00:03:52.971Z,3.00
2019-05-07T00:06:23.125Z,2.90
2019-05-07T00:08:52.383Z,2.90
2019-05-07T00:11:22.340Z,2.90
2019-05-07T00:13:52.268Z,2.80
2019-05-07T00:16:22.446Z,2.70
2019-05-07T00:18:52.565Z,2.70
2019-05-07T00:21:23.332Z,2.70
2019-05-07T00:23:52.799Z,2.70
2019-05-07T00:26:22.590Z,2.70
2019-05-07T00:28:52.679Z,2.70
2019-05-07T00:31:23.244Z,2.70
2019-05-07T00:33:52.709Z,2.70
2019-05-07T00:36:32.341Z,2.80
2019-05-07T00:39:18.359Z,2.80
2019-05-07T00:41:53.857Z,2.80
2019-05-07T00:44:23.179Z,2.70
2019-05-07T00:46:52.618Z,2.70
2019-05-07T00:49:23.483Z,2.70
2019-05-07T00:51:52.510Z,2.70
2019-05-07T00:54:23.020Z,2.60
2019-05-07T00:56:52.267Z,2.60
2019-05-07T00:59:22.604Z,2.60
2019-05-07T01:01:52.832Z,2.70
2019-05-07T01:04:22.936Z,2.70
2019-05-07T01:06:53.174Z,2.70
2019-05-07T01:09:23.013Z,2.60
2019-05-07T01:11:52.505Z,2.70
2019-05-07T01:14:22.898Z,2.70
2019-05-07T01:16:52.902Z,2.70
2019-05-07T01:19:22.188Z,2.80
2019-05-07T01:21:52.492Z,2.80
2019-05-07T01:24:23.347Z,2.90
2019-05-07T01:26:53.066Z,2.90
2019-05-07T01:29:22.697Z,2.80
2019-05-07T01:32:03.849Z,2.80
2019-05-07T01:34:42.930Z,2.70
2019-05-07T01:37:12.466Z,2.70
2019-05-07T01:39:42.165Z,2.60
2019-05-07T01:42:12.769Z,2.40
2019-05-07T01:44:42.119Z,2.40
2019-05-07T01:47:13.090Z,2.30
2019-05-07T01:49:42.340Z,2.20
2019-05-07T01:52:13.345Z,2.20
2019-05-07T01:54:42.682Z,2.10
2019-05-07T01:57:12.311Z,2.20
2019-05-07T01:59:42.768Z,2.20
2019-05-07T02:02:18.893Z,2.20
2019-05-07T02:04:57.641Z,2.20
2019-05-07T02:07:52.139Z,2.10
2019-05-07T02:10:38.302Z,2.00
2019-05-07T02:13:07.333Z,1.90
2019-05-07T02:15:36.395Z,1.90
2019-05-07T02:18:05.524Z,1.90
2019-05-07T02:20:34.653Z,2.00
2019-05-07T02:23:03.705Z,2.00
2019-05-07T02:25:32.994Z,2.00
2019-05-07T02:28:02.309Z,2.00
2019-05-07T02:30:34.536Z,1.90
2019-05-07T02:33:03.770Z,1.80
2019-05-07T02:35:33.463Z,1.70
2019-05-07T02:38:17.203Z,1.60
2019-05-07T02:40:53.371Z,1.60
2019-05-07T02:43:22.819Z,1.60
2019-05-07T02:46:17.305Z,1.60
2019-05-07T02:48:34.118Z,1.60
2019-05-07T02:51:24.301Z,1.60
2019-05-07T02:54:15.437Z,1.70
2019-05-07T02:56:44.576Z,1.80
2019-05-07T02:59:13.903Z,1.70
2019-05-07T03:01:43.409Z,1.70
2019-05-07T03:04:13.020Z,1.60
2019-05-07T03:06:44.270Z,1.70
2019-05-07T03:09:14.462Z,1.70
2019-05-07T03:11:43.855Z,1.60
2019-05-07T03:14:14.018Z,1.70
2019-05-07T03:16:47.882Z,1.70
2019-05-07T03:19:14.237Z,1.70
2019-05-07T03:21:55.747Z,1.70
2019-05-07T03:24:43.666Z,1.70
2019-05-07T03:27:14.290Z,1.70
2019-05-07T03:29:47.335Z,1.70
2019-05-07T03:32:38.137Z,1.60
2019-05-07T03:35:46.742Z,1.60
2019-05-07T03:38:13.299Z,1.60
2019-05-07T03:40:44.812Z,1.70
2019-05-07T03:43:14.081Z,1.60
2019-05-07T03:45:58.820Z,1.50
2019-05-07T03:48:29.000Z,1.50
2019-05-07T03:50:58.025Z,1.40
2019-05-07T03:53:27.086Z,1.40
2019-05-07T03:55:56.226Z,1.30
2019-05-07T03:58:25.291Z,1.30
2019-05-07T04:00:54.389Z,1.30
2019-05-07T04:03:24.777Z,1.30
2019-05-07T04:05:54.054Z,1.30
2019-05-07T04:08:23.897Z,1.30
2019-05-07T04:10:53.947Z,1.30
2019-05-07T04:13:24.197Z,1.30
2019-05-07T04:15:53.725Z,1.40
2019-05-07T04:18:23.746Z,1.40
2019-05-07T04:20:54.102Z,1.30
2019-05-07T04:23:23.775Z,1.40
2019-05-07T04:26:04.259Z,1.40
2019-05-07T04:28:53.965Z,1.40
2019-05-07T04:31:24.260Z,1.40
2019-05-07T04:33:54.055Z,1.40
2019-05-07T04:36:34.125Z,1.50
2019-05-07T04:39:03.178Z,1.40
2019-05-07T04:41:33.049Z,1.40
2019-05-07T04:44:03.563Z,1.40
2019-05-07T04:46:33.610Z,1.50
2019-05-07T04:49:03.705Z,1.50
2019-05-07T04:51:47.914Z,1.50
2019-05-07T04:54:16.952Z,1.50
2019-05-07T04:56:46.043Z,1.60
2019-05-07T04:59:15.090Z,1.60
2019-05-07T05:01:53.074Z,1.70
2019-05-07T05:04:29.847Z,1.80
2019-05-07T05:06:52.880Z,1.80
2019-05-07T05:09:23.277Z,1.90
2019-05-07T05:11:53.147Z,1.90
2019-05-07T05:14:22.896Z,2.00
2019-05-07T05:16:52.559Z,1.90
2019-05-07T05:19:23.025Z,2.00
2019-05-07T05:21:59.387Z,2.00
2019-05-07T05:24:42.383Z,2.00
2019-05-07T05:27:12.187Z,2.10
2019-05-07T05:29:42.946Z,2.10
2019-05-07T05:32:12.107Z,2.10
2019-05-07T05:34:42.582Z,2.10
2019-05-07T05:37:11.986Z,2.20
2019-05-07T05:39:42.675Z,2.20
2019-05-07T05:42:22.628Z,2.30
2019-05-07T05:44:52.469Z,2.40
2019-05-07T05:47:22.207Z,2.40
2019-05-07T05:49:53.288Z,2.50
2019-05-07T05:52:29.546Z,2.60
2019-05-07T05:55:02.914Z,2.80
2019-05-07T05:57:59.861Z,3.10
2019-05-07T06:01:02.847Z,3.40
2019-05-07T06:03:43.625Z,3.90
2019-05-07T06:06:29.811Z,4.30
2019-05-07T06:09:14.319Z,4.70
2019-05-07T06:12:05.312Z,5.10
2019-05-07T06:14:37.961Z,5.40
2019-05-07T06:17:13.245Z,5.80
2019-05-07T06:19:58.613Z,6.10
2019-05-07T06:22:35.043Z,6.40
2019-05-07T06:25:14.806Z,6.50
2019-05-07T06:27:42.380Z,6.60
2019-05-07T06:30:12.081Z,6.70
2019-05-07T06:32:43.002Z,6.70
2019-05-07T06:35:12.509Z,6.60
2019-05-07T06:37:42.898Z,6.50
2019-05-07T06:40:32.168Z,6.40
2019-05-07T06:43:08.373Z,6.40
2019-05-07T06:45:51.997Z,6.40
2019-05-07T06:48:37.187Z,6.30
2019-05-07T06:50:58.345Z,6.30
2019-05-07T06:53:28.259Z,6.30
2019-05-07T06:55:58.178Z,6.10
2019-05-07T06:58:32.719Z,6.00
2019-05-07T07:01:23.869Z,5.90
2019-05-07T07:04:22.523Z,5.90
2019-05-07T07:07:26.612Z,6.00
2019-05-07T07:10:18.590Z,6.10
2019-05-07T07:12:47.702Z,6.10
2019-05-07T07:15:16.761Z,6.30
2019-05-07T07:17:45.820Z,6.70
2019-05-07T07:20:15.081Z,7.10
2019-05-07T07:22:44.118Z,7.40
2019-05-07T07:25:13.153Z,7.60
2019-05-07T07:27:42.967Z,7.80
2019-05-07T07:30:49.473Z,7.80
2019-05-07T07:33:19.185Z,8.00
2019-05-07T07:35:48.301Z,8.00
2019-05-07T07:38:32.969Z,8.10
2019-05-07T07:41:07.875Z,8.20
2019-05-07T07:43:36.929Z,8.40
2019-05-07T07:46:06.086Z,8.70
2019-05-07T07:48:35.105Z,8.90
2019-05-07T07:51:04.161Z,9.10
2019-05-07T07:53:35.497Z,8.90
2019-05-07T07:56:23.063Z,9.10
2019-05-07T07:58:59.175Z,9.40
2019-05-07T08:01:37.441Z,9.70
2019-05-07T08:04:06.507Z,9.80
2019-05-07T08:06:37.269Z,10.10
2019-05-07T08:09:07.432Z,10.40
2019-05-07T08:11:36.497Z,10.60
2019-05-07T08:14:05.923Z,10.50
2019-05-07T08:16:35.102Z,10.50
2019-05-07T08:19:18.112Z,10.60
2019-05-07T08:21:34.989Z,10.80
2019-05-07T08:24:04.526Z,11.00
2019-05-07T08:26:33.561Z,11.20
2019-05-07T08:29:02.991Z,11.10
2019-05-07T08:31:43.153Z,11.20
2019-05-07T08:34:28.726Z,11.10
2019-05-07T08:36:57.772Z,11.10
2019-05-07T08:39:26.824Z,11.10
2019-05-07T08:41:55.941Z,11.10
2019-05-07T08:44:29.118Z,11.20
2019-05-07T08:47:23.253Z,11.20
2019-05-07T08:49:52.472Z,11.30
2019-05-07T08:52:22.355Z,11.40
2019-05-07T08:54:52.323Z,11.60
2019-05-07T08:57:22.730Z,11.50
2019-05-07T09:00:00.463Z,11.60
2019-05-07T09:02:22.778Z,11.70
2019-05-07T09:04:52.242Z,11.90
2019-05-07T09:07:21.985Z,12.10
2019-05-07T09:09:52.323Z,12.40
2019-05-07T09:12:23.003Z,12.50
2019-05-07T09:14:52.995Z,12.50
2019-05-07T09:17:23.020Z,12.50
2019-05-07T09:19:54.823Z,12.50
2019-05-07T09:22:23.221Z,12.60
2019-05-07T09:24:52.767Z,12.40
2019-05-07T09:27:37.788Z,12.50
2019-05-07T09:30:22.071Z,12.50
2019-05-07T09:33:13.034Z,12.50
2019-05-07T09:35:47.778Z,12.70
2019-05-07T09:38:16.885Z,12.90
2019-05-07T09:40:45.927Z,12.90
2019-05-07T09:43:14.980Z,12.80
2019-05-07T09:45:44.107Z,12.80
2019-05-07T09:48:13.165Z,13.10
2019-05-07T09:50:42.930Z,13.30
2019-05-07T09:53:12.774Z,13.10
2019-05-07T09:55:42.652Z,12.90
2019-05-07T09:58:12.510Z,13.10
2019-05-07T10:00:42.417Z,13.10
2019-05-07T10:03:12.614Z,13.20
2019-05-07T10:05:42.702Z,13.10
2019-05-07T10:08:12.879Z,13.30
2019-05-07T10:10:42.796Z,13.50
2019-05-07T10:13:33.916Z,13.70
2019-05-07T10:16:04.321Z,13.80
2019-05-07T10:18:33.915Z,13.90
2019-05-07T10:21:02.938Z,14.10
2019-05-07T10:23:32.189Z,14.00
2019-05-07T10:26:02.131Z,14.30
2019-05-07T10:28:32.029Z,14.50
2019-05-07T10:31:01.295Z,14.50
2019-05-07T10:33:31.912Z,14.50
2019-05-07T10:36:02.121Z,14.40
2019-05-07T10:38:31.292Z,14.60
2019-05-07T10:41:02.675Z,14.50
2019-05-07T10:43:32.741Z,14.20
2019-05-07T10:46:21.193Z,14.30
2019-05-07T10:48:58.059Z,14.60
2019-05-07T10:51:27.141Z,14.90
2019-05-07T10:53:56.177Z,15.10
2019-05-07T10:56:25.217Z,15.30
2019-05-07T10:58:54.273Z,15.30
2019-05-07T11:01:32.879Z,15.20
2019-05-07T11:04:02.337Z,15.30
2019-05-07T11:06:32.373Z,15.20
2019-05-07T11:09:01.530Z,15.30
2019-05-07T11:11:31.890Z,15.60
2019-05-07T11:14:01.937Z,15.40
2019-05-07T11:16:35.340Z,14.90
2019-05-07T11:19:04.597Z,15.10
2019-05-07T11:21:33.899Z,15.40
2019-05-07T11:24:03.362Z,15.40
2019-05-07T11:26:32.998Z,15.50
2019-05-07T11:29:02.479Z,15.50
2019-05-07T11:31:33.077Z,15.60
2019-05-07T11:34:02.920Z,15.50
2019-05-07T11:36:34.410Z,15.60
2019-05-07T11:39:03.910Z,15.80
2019-05-07T11:41:39.359Z,16.20
2019-05-07T11:44:19.400Z,16.30
2019-05-07T11:47:05.871Z,16.30
2019-05-07T11:49:52.605Z,16.40
2019-05-07T11:52:32.329Z,16.40
2019-05-07T11:55:03.020Z,16.60
2019-05-07T11:57:31.304Z,16.60
2019-05-07T12:00:02.606Z,16.60
2019-05-07T12:02:32.028Z,16.80
2019-05-07T12:05:02.027Z,16.60
2019-05-07T12:07:32.746Z,16.80
2019-05-07T12:10:04.769Z,16.70
2019-05-07T12:12:32.722Z,16.70
2019-05-07T12:15:02.421Z,16.80
2019-05-07T12:17:31.752Z,17.00
2019-05-07T12:20:02.371Z,17.30
2019-05-07T12:22:46.854Z,17.50
2019-05-07T12:25:17.246Z,17.70
2019-05-07T12:27:46.525Z,17.80
2019-05-07T12:30:22.139Z,17.90
2019-05-07T12:33:03.216Z,17.60
2019-05-07T12:35:32.465Z,17.60
2019-05-07T12:38:02.062Z,17.50
2019-05-07T12:40:32.545Z,17.50
2019-05-07T12:43:02.093Z,17.50
2019-05-07T12:45:31.165Z,17.70
2019-05-07T12:48:02.246Z,17.60
2019-05-07T12:50:32.317Z,17.50
2019-05-07T12:53:07.571Z,17.70
2019-05-07T12:55:43.670Z,17.70
2019-05-07T12:58:12.740Z,17.80
2019-05-07T13:01:05.291Z,17.90
2019-05-07T13:03:39.484Z,17.90
2019-05-07T13:06:08.534Z,17.80
2019-05-07T13:08:37.610Z,18.00
2019-05-07T13:11:06.654Z,18.10
2019-05-07T13:13:35.692Z,18.20
2019-05-07T13:16:04.903Z,18.20
2019-05-07T13:18:33.940Z,18.20
2019-05-07T13:21:03.011Z,17.90
2019-05-07T13:23:32.072Z,18.10
2019-05-07T13:26:02.546Z,18.10
2019-05-07T13:28:31.843Z,18.10
2019-05-07T13:31:02.358Z,18.00
2019-05-07T13:33:34.655Z,18.10
2019-05-07T13:36:04.209Z,18.10
2019-05-07T13:38:43.048Z,18.00
2019-05-07T13:41:24.743Z,18.00
2019-05-07T13:44:17.041Z,18.30
2019-05-07T13:46:46.990Z,18.00
2019-05-07T13:49:16.634Z,17.90
2019-05-07T13:51:45.774Z,17.80
2019-05-07T13:54:14.820Z,17.50
2019-05-07T13:56:43.896Z,17.30
2019-05-07T13:59:13.274Z,17.30
2019-05-07T14:02:13.842Z,17.40
2019-05-07T14:04:42.036Z,17.50
2019-05-07T14:07:12.666Z,17.70
2019-05-07T14:09:42.098Z,17.80
2019-05-07T14:12:12.323Z,17.70
2019-05-07T14:14:42.617Z,17.90
2019-05-07T14:17:12.712Z,18.40
2019-05-07T14:19:42.320Z,18.70
2019-05-07T14:22:18.028Z,19.00
2019-05-07T14:24:42.324Z,19.70
2019-05-07T14:27:11.411Z,20.30
2019-05-07T14:29:42.311Z,20.50
2019-05-07T14:32:18.769Z,20.50
2019-05-07T14:35:05.452Z,20.80
2019-05-07T14:37:47.177Z,20.90
2019-05-07T14:40:16.494Z,21.00
2019-05-07T14:42:52.415Z,21.10
2019-05-07T14:45:23.498Z,21.10
2019-05-07T14:47:52.278Z,21.00
2019-05-07T14:50:22.606Z,21.00
2019-05-07T14:52:52.333Z,21.00
2019-05-07T14:55:22.639Z,20.90
2019-05-07T14:57:52.442Z,20.30
2019-05-07T15:00:22.598Z,20.00
2019-05-07T15:02:52.530Z,19.80
2019-05-07T15:05:22.339Z,19.50
2019-05-07T15:07:51.793Z,19.20
2019-05-07T15:10:22.187Z,19.00
2019-05-07T15:12:52.198Z,18.90
2019-05-07T15:15:22.017Z,18.80
2019-05-07T15:18:16.396Z,18.60
2019-05-07T15:20:45.555Z,18.60
2019-05-07T15:23:19.173Z,18.50
2019-05-07T15:25:48.509Z,18.40
2019-05-07T15:28:17.645Z,18.30
2019-05-07T15:30:55.833Z,18.20
2019-05-07T15:33:24.985Z,18.00
2019-05-07T15:35:54.050Z,17.90
2019-05-07T15:38:23.099Z,17.90
2019-05-07T15:40:52.156Z,17.80
2019-05-07T15:43:21.178Z,17.60
2019-05-07T15:45:52.318Z,17.40
2019-05-07T15:48:21.979Z,17.20
2019-05-07T15:50:51.980Z,17.10
2019-05-07T15:53:38.393Z,17.10
2019-05-07T15:56:07.453Z,17.20
2019-05-07T15:58:36.493Z,17.10
2019-05-07T16:01:05.632Z,16.90
2019-05-07T16:03:42.671Z,16.90
2019-05-07T16:06:12.643Z,17.00
2019-05-07T16:08:49.247Z,16.90
2019-05-07T16:11:17.613Z,16.80
2019-05-07T16:13:52.504Z,16.70
2019-05-07T16:16:23.371Z,16.60
2019-05-07T16:19:23.540Z,16.50
2019-05-07T16:21:52.611Z,16.40
2019-05-07T16:24:22.542Z,16.30
2019-05-07T16:26:52.319Z,16.20
2019-05-07T16:29:22.513Z,16.20
2019-05-07T16:31:52.125Z,16.10
2019-05-07T16:34:22.010Z,16.10
2019-05-07T16:36:52.053Z,16.10
2019-05-07T16:39:22.177Z,16.00
2019-05-07T16:41:52.599Z,15.90
2019-05-07T16:44:22.574Z,15.80
2019-05-07T16:46:53.511Z,15.80
2019-05-07T16:49:22.736Z,15.70
2019-05-07T16:51:52.492Z,15.60
2019-05-07T16:54:21.693Z,15.50
2019-05-07T16:57:08.209Z,15.40
2019-05-07T16:59:37.317Z,15.40
2019-05-07T17:02:14.621Z,15.40
2019-05-07T17:05:03.085Z,15.40
2019-05-07T17:07:32.281Z,15.30
2019-05-07T17:10:02.680Z,15.30
2019-05-07T17:12:32.443Z,15.20
2019-05-07T17:15:02.992Z,15.10
2019-05-07T17:17:32.278Z,15.00
2019-05-07T17:20:02.829Z,14.90
2019-05-07T17:22:32.377Z,14.80
2019-05-07T17:25:04.029Z,14.70
2019-05-07T17:27:33.072Z,14.60
2019-05-07T17:30:02.964Z,14.50
2019-05-07T17:32:32.232Z,14.50
2019-05-07T17:35:02.623Z,14.40
2019-05-07T17:37:31.721Z,14.40
2019-05-07T17:40:02.982Z,14.40
2019-05-07T17:42:32.883Z,14.40
2019-05-07T17:45:02.944Z,14.40
2019-05-07T17:47:32.618Z,14.40
2019-05-07T17:50:02.376Z,14.40
2019-05-07T17:52:32.402Z,14.40
2019-05-07T17:55:02.197Z,14.20
2019-05-07T17:57:33.330Z,14.10
2019-05-07T18:00:02.373Z,13.90
2019-05-07T18:02:39.426Z,13.80
2019-05-07T18:05:08.469Z,13.70
2019-05-07T18:07:37.509Z,13.60
2019-05-07T18:10:06.776Z,13.50
2019-05-07T18:12:35.826Z,13.30
2019-05-07T18:15:05.382Z,13.10
2019-05-07T18:18:00.290Z,12.90
2019-05-07T18:20:29.121Z,12.90
2019-05-07T18:22:58.167Z,12.80
2019-05-07T18:25:27.209Z,12.80
2019-05-07T18:27:56.249Z,12.70
2019-05-07T18:30:25.483Z,12.50
2019-05-07T18:33:02.340Z,12.30
2019-05-07T18:35:32.156Z,12.30
2019-05-07T18:38:02.599Z,12.20
2019-05-07T18:40:31.872Z,12.20
2019-05-07T18:43:02.963Z,12.10
2019-05-07T18:45:31.633Z,12.00
2019-05-07T18:48:02.405Z,11.90
2019-05-07T18:50:32.565Z,11.80
2019-05-07T18:53:02.845Z,11.80
2019-05-07T18:55:33.524Z,11.80
2019-05-07T18:58:02.849Z,11.80
2019-05-07T19:00:35.387Z,11.70
2019-05-07T19:03:04.455Z,11.70
2019-05-07T19:05:33.564Z,11.70
2019-05-07T19:08:08.027Z,11.60
2019-05-07T19:10:33.493Z,11.60
2019-05-07T19:13:02.734Z,11.50
2019-05-07T19:15:32.851Z,11.30
2019-05-07T19:18:02.700Z,11.30
2019-05-07T19:20:32.631Z,11.20
2019-05-07T19:23:02.673Z,11.10
2019-05-07T19:25:32.638Z,11.00
2019-05-07T19:28:02.091Z,11.00
2019-05-07T19:30:32.677Z,11.00
2019-05-07T19:33:01.806Z,11.10
2019-05-07T19:35:32.747Z,11.10
2019-05-07T19:38:02.877Z,11.10
2019-05-07T19:40:32.574Z,11.10
2019-05-07T19:43:02.999Z,11.10
2019-05-07T19:45:32.170Z,11.10
2019-05-07T19:48:02.867Z,11.20
2019-05-07T19:50:32.494Z,11.20
2019-05-07T19:53:02.970Z,11.20
2019-05-07T19:55:52.596Z,11.10
2019-05-07T19:58:22.950Z,11.20
2019-05-07T20:00:57.085Z,11.20
2019-05-07T20:03:23.638Z,11.10
2019-05-07T20:05:52.702Z,11.10
2019-05-07T20:08:21.790Z,11.10
2019-05-07T20:10:56.752Z,11.00
2019-05-07T20:13:27.305Z,10.90
2019-05-07T20:16:06.594Z,10.80
2019-05-07T20:18:35.669Z,10.80
2019-05-07T20:21:04.825Z,10.70
2019-05-07T20:23:33.873Z,10.70
2019-05-07T20:26:03.160Z,10.60
2019-05-07T20:28:32.747Z,10.40
2019-05-07T20:31:01.974Z,10.40
2019-05-07T20:33:32.724Z,10.40
2019-05-07T20:36:02.628Z,10.40
2019-05-07T20:38:32.170Z,10.30
2019-05-07T20:41:02.079Z,10.30
2019-05-07T20:43:32.612Z,10.30
2019-05-07T20:46:02.659Z,10.40
2019-05-07T20:48:32.454Z,10.30
2019-05-07T20:51:01.625Z,10.20
2019-05-07T20:53:48.500Z,10.20
2019-05-07T20:56:18.954Z,10.10
2019-05-07T20:58:48.008Z,10.00
2019-05-07T21:01:17.109Z,9.90
2019-05-07T21:03:46.157Z,9.90
2019-05-07T21:06:15.200Z,9.80
2019-05-07T21:08:44.250Z,9.90
2019-05-07T21:11:13.292Z,9.90
2019-05-07T21:13:44.604Z,9.80
2019-05-07T21:16:13.097Z,9.60
2019-05-07T21:18:42.432Z,9.50
2019-05-07T21:21:12.540Z,9.50
2019-05-07T21:23:43.423Z,9.60
2019-05-07T21:26:13.190Z,9.70
2019-05-07T21:28:43.183Z,9.70
2019-05-07T21:31:12.476Z,9.60
2019-05-07T21:33:42.921Z,9.60
2019-05-07T21:36:12.341Z,9.60
2019-05-07T21:38:42.579Z,9.50
2019-05-07T21:41:12.866Z,9.50
2019-05-07T21:43:45.733Z,9.40
2019-05-07T21:46:13.042Z,9.30
2019-05-07T21:48:42.127Z,9.30
2019-05-07T21:51:12.186Z,9.30
2019-05-07T21:54:05.487Z,9.30
2019-05-07T21:56:56.667Z,9.20
2019-05-07T21:59:26.583Z,9.30
2019-05-07T22:01:59.252Z,9.30
2019-05-07T22:04:28.381Z,9.30
2019-05-07T22:06:57.417Z,9.30
2019-05-07T22:09:26.569Z,9.30
2019-05-07T22:11:55.617Z,9.20
2019-05-07T22:14:24.726Z,9.10
2019-05-07T22:16:54.602Z,9.10
2019-05-07T22:19:23.765Z,9.10
2019-05-07T22:21:52.736Z,9.10
2019-05-07T22:24:22.463Z,9.10
2019-05-07T22:26:51.589Z,9.10
2019-05-07T22:29:22.594Z,9.10
2019-05-07T22:32:13.213Z,9.20
2019-05-07T22:34:48.365Z,9.30
2019-05-07T22:37:17.425Z,9.30
2019-05-07T22:39:46.474Z,9.40
2019-05-07T22:42:15.672Z,9.40
2019-05-07T22:44:44.645Z,9.50
2019-05-07T22:47:18.949Z,9.50
2019-05-07T22:49:49.254Z,9.40
2019-05-07T22:52:18.888Z,9.40
2019-05-07T22:54:48.082Z,9.40
2019-05-07T22:57:32.755Z,9.40
2019-05-07T23:00:04.534Z,9.40
2019-05-07T23:02:32.562Z,9.60
2019-05-07T23:05:02.844Z,9.90
2019-05-07T23:07:32.903Z,10.30
2019-05-07T23:10:02.791Z,10.50
2019-05-07T23:12:32.671Z,10.60
2019-05-07T23:15:02.741Z,10.60
2019-05-07T23:17:32.617Z,10.50
2019-05-07T23:20:01.788Z,10.40
2019-05-07T23:22:32.399Z,10.30
2019-05-07T23:25:01.569Z,10.10
2019-05-07T23:27:32.581Z,10.10
2019-05-07T23:30:02.606Z,10.10
2019-05-07T23:32:32.941Z,10.00
2019-05-07T23:35:02.254Z,9.90
2019-05-07T23:37:33.158Z,9.80
2019-05-07T23:40:12.200Z,9.70
2019-05-07T23:42:42.632Z,9.60
2019-05-07T23:45:12.562Z,9.50
2019-05-07T23:47:44.482Z,9.50
2019-05-07T23:50:12.616Z,9.50
2019-05-07T23:52:43.952Z,9.40
2019-05-07T23:55:12.478Z,9.40
2019-05-07T23:57:43.077Z,9.50
